METAR Data
IDs: Format: Raw Decoded Include TAF

Data at: 1942 UTC 25 Sep 2020

KMSN 251853Z 18013G21KT 10SM FEW250 24/14 A2986 RMK AO2 SLP108 T02440139
KMSN 251753Z 19015G21KT 10SM FEW250 23/14 A2989 RMK AO2 PK WND 19027/1658 SLP120 T02330139 10239 20156 58018
KMSN 251653Z 19017G26KT 10SM FEW250 23/13 A2991 RMK AO2 PK WND 19026/1645 SLP125 T02280133
KMSN 251553Z 18011G16KT 10SM FEW250 22/14 A2993 RMK AO2 SLP132 T02170144
KMSN 251453Z VRB06G14KT 10SM CLR 20/14 A2995 RMK AO2 SLP138 T02000139 53005
KMSN 251353Z 19006KT 10SM CLR 18/14 A2994 RMK AO2 SLP136 T01830139
KMSN 251253Z 18006KT 10SM CLR 16/14 A2993 RMK AO2 SLP133 T01610139
KMSN 251153Z 21004KT 10SM CLR 16/13 A2993 RMK AO2 SLP134 70004 T01560133 10178 20156 51008
KMSN 251053Z 19004KT 10SM FEW250 16/13 A2992 RMK AO2 SLP130 T01610133
KMSN 250953Z AUTO 00000KT 10SM CLR 17/13 A2992 RMK AO2 SLP129 T01720133
KMSN 250853Z AUTO VRB04KT 10SM BKN050 17/13 A2991 RMK AO2 SLP124 T01720133 51005
KMSN 250753Z AUTO 19005KT 10SM OVC048 17/13 A2990 RMK AO2 SLP122 T01720133
KMSN 250653Z AUTO 19006KT 10SM CLR 18/14 A2990 RMK AO2 SLP123 T01780139
KMSN 250553Z AUTO 19006KT 10SM CLR 18/14 A2989 RMK AO2 SLP119 T01780144 10206 20178 402280122 50001
KMSN 250453Z AUTO 19006KT 10SM BKN050 19/15 A2989 RMK AO2 SLP119 T01890150
KMSN 250353Z 19006KT 10SM SCT050 BKN060 19/16 A2989 RMK AO2 SLP118 LAST T01940156
KMSN 250253Z 18005KT 10SM BKN050 21/16 A2989 RMK AO2 SLP118 T02060161 53007
KMSN 250153Z 18005KT 10SM SCT050 OVC070 21/17 A2988 RMK AO2 SLP115 T02060167
KMSN 250053Z 18004KT 10SM BKN055 OVC075 21/17 A2987 RMK AO2 SLP113 T02060172
KMSN 242353Z 18005KT 10SM BKN065 BKN080 OVC100 21/17 A2987 RMK AO2 RAE20 SLP112 P0004 60004 T02060172 10228 20189 51005
KMSN 242253Z 16006KT 9SM -RA FEW065 SCT080 OVC100 22/17 A2986 RMK AO2 RAB02E14B49 SLP111 P0000 T02170167
KMSN 242218Z VRB03KT 10SM SCT070 BKN090 OVC110 22/17 A2987 RMK AO2 RAB02E14 P0000 T02170167
KMSN 242203Z VRB04KT 10SM VCTS -RA BKN075 OVC100 22/16 A2986 RMK AO2 RAB02 P0000 T02170161
KMSN 242153Z VRB03KT 10SM BKN070 OVC150 22/16 A2986 RMK AO2 SLP109 T02170161
KMSN 242053Z 20007KT 10SM SCT060 BKN100 BKN120 OVC200 22/17 A2985 RMK AO2 RAE1958 SLP106 P0000 60000 T02220167 55015
KMSN 241953Z 18010KT 10SM -RA FEW065 BKN110 22/18 A2985 RMK AO2 RAE06B43 SLP104 P0000 T02170178
KMSN 241853Z 22006KT 10SM -RA BKN070 BKN110 OVC200 21/17 A2990 RMK AO2 RAB43 SLP122 P0000 T02110172
KMSN 241753Z 21007KT 10SM FEW022 FEW065 BKN140 OVC200 22/17 A2990 RMK AO2 SLP121 T02220167 10222 20133 58007
KMSN 241653Z 19008KT 10SM FEW024 BKN065 BKN150 22/17 A2991 RMK AO2 SLP124 T02220167
KMSN 241553Z 20005KT 10SM FEW045 FEW085 BKN140 19/16 A2992 RMK AO2 SLP130 T01940161
KMSN 241453Z 18006KT 10SM SCT048 BKN150 19/16 A2992 RMK AO2 SLP130 T01890161 50002
KMSN 241353Z 18006KT 10SM FEW045 BKN140 17/15 A2992 RMK AO2 SLP131 T01670150
KMSN 241253Z 00000KT 10SM FEW044 BKN150 16/14 A2992 RMK AO2 SLP131 T01560144
KMSN 241153Z 15003KT 10SM BKN150 13/13 A2991 RMK AO2 SLP128 T01330128 10167 20122 58001
KMSN 241053Z 00000KT 9SM BKN140 BKN200 13/13 A2992 RMK AO2 SLP130 T01280128
KMSN 240953Z AUTO 00000KT 10SM CLR 13/13 A2991 RMK AO2 SLP127 T01330128
KMSN 240853Z AUTO 10003KT 10SM CLR 13/12 A2992 RMK AO2 SLP128 T01280122 55003
KMSN 240753Z AUTO 00000KT 10SM CLR 14/13 A2992 RMK AO2 SLP127 T01390128